Time;durP1;ratioP1;P1;durP2;ratioP2;P2;SDS_P1;SDS_P2;PMS_P1;PMS_P2;Temp;Humidity;BMP_temperature;BMP_pressure;BME280_temperature;BME280_humidity;BME280_pressure;Samples;Min_cycle;Max_cycle;Signal;HPM_P1;HPM_P2
2023/09/22 00:00:41;;;;;;;;;;;;;;;23.89;59.57;97771.41;7312124;19;130414;-36
2023/09/22 00:03:08;;;;;;;89.47;5.75;;;;;;;23.89;58.64;97770.59;7312045;19;130571;-37
2023/09/22 00:05:33;;;;;;;;;;;;;;;23.88;59.99;97777.66;7312643;19;129606;-37
2023/09/22 00:07:58;;;;;;;78.13;5.50;;;;;;;23.89;58.36;97783.72;7309629;19;129674;-37
2023/09/22 00:10:24;;;;;;;57.17;4.50;;;;;;;23.88;57.95;97782.91;7310992;19;131438;-37
2023/09/22 00:12:49;;;;;;;90.67;6.27;;;;;;;23.88;57.77;97790.78;7311010;19;129293;-36
2023/09/22 00:15:15;;;;;;;124.63;7.50;;;;;;;23.90;58.34;97780.88;7311188;19;130237;-37
2023/09/22 00:17:41;;;;;;;103.30;6.55;;;;;;;23.80;57.96;97767.34;7307999;19;130276;-37
2023/09/22 00:20:13;;;;;;;90.03;6.07;;;;;;;23.88;58.60;97782.91;7310820;19;130638;-37
2023/09/22 00:22:39;;;;;;;91.97;6.45;;;;;;;23.87;58.78;97781.28;7311114;19;129108;-37
2023/09/22 00:25:04;;;;;;;76.33;5.73;;;;;;;23.91;58.64;97787.78;7311980;19;129359;-37
2023/09/22 00:27:30;;;;;;;89.67;6.00;;;;;;;23.90;57.67;97791.38;7307142;19;130101;-35
2023/09/22 00:29:55;;;;;;;88.03;6.40;;;;;;;23.90;57.95;97828.13;7310350;19;130272;-36
2023/09/22 00:32:21;;;;;;;71.07;5.07;;;;;;;23.88;57.78;97851.13;7310847;19;129315;-37
2023/09/22 00:34:46;;;;;;;104.17;6.83;;;;;;;23.78;57.69;97861.22;7309817;19;128886;-37
2023/09/22 00:37:12;;;;;;;90.43;6.37;;;;;;;23.89;58.49;97884.28;7309855;19;129238;-37
2023/09/22 00:39:38;;;;;;;103.83;6.77;;;;;;;23.88;58.53;97885.25;7306645;19;130885;-37
2023/09/22 00:42:08;;;;;;;50.53;4.30;;;;;;;23.78;58.46;97871.72;7311209;19;130466;-36
2023/09/22 00:44:33;;;;;;;86.43;6.03;;;;;;;23.87;58.32;97886.28;7309595;19;129567;-37
2023/09/22 00:46:59;;;;;;;62.70;5.17;;;;;;;23.86;58.27;97895.16;7307757;19;129681;-37
2023/09/22 00:49:25;;;;;;;126.47;7.67;;;;;;;23.85;57.88;97888.28;7303441;19;131405;-36
2023/09/22 00:51:51;;;;;;;75.10;5.53;;;;;;;23.83;58.65;97884.25;7311714;19;129423;-37
2023/09/22 00:54:17;;;;;;;76.93;6.07;;;;;;;23.87;58.23;97886.28;7311422;19;131320;-37
2023/09/22 00:56:45;;;;;;;114.83;7.83;;;;;;;23.87;58.31;97888.91;7308035;19;130829;-37
2023/09/22 00:59:11;;;;;;;80.80;5.80;;;;;;;23.85;57.89;97877.78;7309473;19;130373;-36
2023/09/22 01:01:36;;;;;;;57.77;4.80;;;;;;;23.88;58.49;97881.84;7308395;19;129939;-37
2023/09/22 01:04:03;;;;;;;39.33;3.90;;;;;;;23.88;57.99;97876.59;7309280;19;130789;-37
2023/09/22 01:06:29;;;;;;;85.40;5.93;;;;;;;23.88;58.62;97882.63;7308701;19;130216;-37
2023/09/22 01:08:56;;;;;;;88.93;6.33;;;;;;;23.88;58.03;97885.25;7306472;19;130298;-37
2023/09/22 01:11:21;;;;;;;105.38;7.03;;;;;;;23.87;58.55;97881.03;7309000;19;129552;-37
2023/09/22 01:13:46;;;;;;;95.87;6.60;;;;;;;23.80;58.00;97864.44;7307834;19;129940;-38
2023/09/22 01:16:12;;;;;;;65.53;5.20;;;;;;;23.88;58.35;97887.88;7309344;19;129001;-37
2023/09/22 01:18:37;;;;;;;66.83;5.50;;;;;;;23.88;58.12;97889.72;7306525;19;131128;-35
2023/09/22 01:21:03;;;;;;;75.53;5.50;;;;;;;23.86;58.44;97889.91;7309880;19;129514;-37
2023/09/22 01:23:29;;;;;;;94.67;6.40;;;;;;;23.88;58.12;97895.75;7308467;19;130133;-37
2023/09/22 01:25:54;;;;;;;146.57;9.27;;;;;;;23.88;58.46;97893.13;7307342;19;129984;-36
2023/09/22 01:28:19;;;;;;;56.50;5.20;;;;;;;23.87;58.29;97896.78;7306450;19;130159;-36
2023/09/22 01:30:45;;;;;;;85.23;5.77;;;;;;;23.87;58.56;97894.16;7308991;19;128834;-37
2023/09/22 01:33:10;;;;;;;85.27;5.93;;;;;;;23.82;58.71;97901.81;7307261;19;129291;-38
2023/09/22 01:35:36;;;;;;;55.53;4.77;;;;;;;23.84;58.11;97912.09;7308526;19;129113;-37
2023/09/22 01:38:23;;;;;;;48.53;4.83;;;;;;;23.83;59.05;97916.53;7307394;19;130460;-36
2023/09/22 01:40:49;;;;;;;84.85;6.00;;;;;;;23.84;58.59;97918.16;7309549;19;129338;-37
2023/09/22 01:43:15;;;;;;;99.55;6.70;;;;;;;23.83;58.67;97918.38;7307545;19;129569;-36
2023/09/22 01:45:40;;;;;;;89.13;5.77;;;;;;;23.82;58.91;97928.03;7307649;19;130510;-38
2023/09/22 01:48:08;;;;;;;74.60;5.57;;;;;;;23.84;58.76;97928.66;7305637;19;130286;-39
2023/09/22 01:50:37;;;;;;;76.47;5.45;;;;;;;23.72;58.04;97911.84;7306136;19;128909;-39
2023/09/22 01:53:04;;;;;;;106.10;7.60;;;;;;;23.72;57.67;97918.88;7307080;19;129486;-34
2023/09/22 01:55:29;;;;;;;;;;;;;;;23.81;59.52;97944.81;7309414;19;130887;-34
2023/09/22 01:57:54;;;;;;;127.72;8.25;;;;;;;23.79;58.55;97949.44;7303755;19;129168;-35
2023/09/22 02:00:20;;;;;;;70.13;5.43;;;;;;;23.80;58.23;97951.03;7309268;19;129579;-35
2023/09/22 02:02:46;;;;;;;121.67;7.97;;;;;;;23.80;58.10;97948.41;7307609;19;129632;-36
2023/09/22 02:05:12;;;;;;;75.47;5.47;;;;;;;23.81;58.19;97939.56;7308434;19;130434;-36
2023/09/22 02:07:38;;;;;;;97.40;6.70;;;;;;;23.80;58.62;97940.53;7302117;19;130765;-37
2023/09/22 02:10:05;;;;;;;95.63;6.67;;;;;;;23.81;58.16;97944.00;7305474;19;130962;-34
2023/09/22 02:12:31;;;;;;;77.20;6.28;;;;;;;23.81;58.33;97936.94;7308215;19;129836;-35
2023/09/22 02:14:56;;;;;;;89.87;6.53;;;;;;;23.79;58.63;97946.00;7304381;19;130906;-36
2023/09/22 02:17:22;;;;;;;148.30;9.97;;;;;;;23.80;58.85;97940.53;7301708;19;130600;-35
2023/09/22 02:19:47;;;;;;;106.03;7.13;;;;;;;23.80;58.10;97937.91;7307306;19;129695;-35
2023/09/22 02:22:13;;;;;;;104.97;6.67;;;;;;;23.80;58.51;97943.16;7305920;19;129639;-37
2023/09/22 02:24:39;;;;;;;75.22;5.90;;;;;;;23.71;58.09;97922.53;7307138;19;130141;-36
2023/09/22 02:27:04;;;;;;;77.40;5.63;;;;;;;23.79;58.50;97944.19;7306380;19;130474;-36
2023/09/22 02:29:30;;;;;;;73.67;5.10;;;;;;;23.81;58.49;97949.25;7305298;19;129913;-36
2023/09/22 02:31:55;;;;;;;107.07;7.67;;;;;;;23.81;58.44;97960.56;7305986;19;129347;-36
2023/09/22 02:34:21;;;;;;;72.23;5.50;;;;;;;23.80;58.97;97964.16;7307928;19;129697;-39
2023/09/22 02:36:49;;;;;;;127.23;7.77;;;;;;;23.80;58.51;97974.66;7304890;19;129610;-35
2023/09/22 02:39:16;;;;;;;63.97;5.18;;;;;;;23.79;57.93;97975.69;7307732;19;130286;-35
2023/09/22 02:41:41;;;;;;;79.35;5.65;;;;;;;23.80;58.68;97974.66;7307188;19;129583;-37
2023/09/22 02:44:08;;;;;;;70.50;5.43;;;;;;;23.77;58.28;97961.94;7305351;19;129480;-36
2023/09/22 02:46:37;;;;;;;82.38;5.97;;;;;;;23.77;58.71;97969.81;7306615;19;130296;-37
2023/09/22 02:49:03;;;;;;;89.32;6.00;;;;;;;23.78;57.84;97973.25;7304986;19;129306;-35
2023/09/22 02:51:28;;;;;;;101.43;6.88;;;;;;;23.77;58.40;97980.31;7307271;19;129305;-34
2023/09/22 02:53:56;;;;;;;119.87;7.40;;;;;;;23.79;58.03;97986.19;7305373;19;131265;-37
2023/09/22 02:56:22;;;;;;;51.88;4.07;;;;;;;23.79;58.34;97994.03;7305250;19;129150;-38
2023/09/22 02:58:48;;;;;;;97.30;6.00;;;;;;;23.79;57.06;97988.78;7303013;19;129841;-36
2023/09/22 03:01:14;;;;;;;66.20;4.80;;;;;;;23.80;57.73;97987.78;7306794;19;128861;-37
2023/09/22 03:03:42;;;;;;;75.60;4.97;;;;;;;23.81;57.55;97992.03;7305339;19;131072;-34
2023/09/22 03:06:12;;;;;;;108.70;6.45;;;;;;;23.82;56.85;97988.41;7303043;19;131280;-38
2023/09/22 03:08:38;;;;;;;191.57;10.10;;;;;;;23.80;57.45;97998.28;7300938;19;129057;-36
2023/09/22 03:11:04;;;;;;;81.28;4.55;;;;;;;23.79;57.36;98008.97;7307068;19;129008;-34
2023/09/22 03:13:30;;;;;;;89.03;4.90;;;;;;;23.81;57.40;98023.53;7304878;19;130093;-35
2023/09/22 03:15:55;;;;;;;149.43;8.20;;;;;;;23.77;57.02;98014.41;7305011;19;130290;-41
2023/09/22 03:18:20;;;;;;;61.97;3.67;;;;;;;23.79;56.71;98020.28;7302714;19;130343;-36
2023/09/22 03:20:46;;;;;;;71.23;4.10;;;;;;;23.78;56.26;98029.19;7306557;19;129588;-35
2023/09/22 03:23:12;;;;;;;67.07;3.77;;;;;;;23.76;56.95;98022.47;7305668;19;130134;-36
2023/09/22 03:25:37;;;;;;;68.77;3.70;;;;;;;23.73;57.11;98033.38;7305996;19;130237;-36
2023/09/22 03:28:03;;;;;;;132.73;6.83;;;;;;;23.76;56.30;98027.72;7300025;19;129797;-36
2023/09/22 03:30:29;;;;;;;66.07;3.50;;;;;;;23.65;55.88;98004.66;7306273;19;129321;-38
2023/09/22 03:32:56;;;;;;;105.87;5.60;;;;;;;23.73;55.87;98025.50;7303614;19;130478;-37
2023/09/22 03:35:21;;;;;;;75.55;3.78;;;;;;;23.72;55.73;98024.66;7306126;19;131606;-35
2023/09/22 03:37:48;;;;;;;66.90;3.93;;;;;;;23.64;56.06;98013.50;7303873;19;129010;-35
2023/09/22 03:40:15;;;;;;;64.25;3.13;;;;;;;23.73;55.69;98036.81;7304678;19;129482;-35
2023/09/22 03:42:44;;;;;;;89.27;4.27;;;;;;;23.74;56.50;98033.16;7303797;19;129498;-35
2023/09/22 03:45:10;;;;;;;106.93;5.22;;;;;;;23.71;55.63;98033.56;7301884;19;132156;-34
2023/09/22 03:47:36;;;;;;;85.50;4.27;;;;;;;23.73;56.14;98041.25;7302631;19;129194;-37
2023/09/22 03:50:03;;;;;;;108.20;5.13;;;;;;;23.74;55.24;98050.72;7301222;19;129454;-36
2023/09/22 03:52:28;;;;;;;84.10;4.45;;;;;;;23.74;55.28;98048.91;7304682;19;131065;-36
2023/09/22 03:54:54;;;;;;;102.73;4.97;;;;;;;23.71;55.46;98049.31;7304900;19;130360;-39
2023/09/22 03:57:20;;;;;;;90.03;4.40;;;;;;;23.72;55.19;98045.66;7298940;19;131546;-36
2023/09/22 03:59:45;;;;;;;76.35;3.63;;;;;;;23.71;55.55;98038.81;7305387;19;129192;-39
2023/09/22 04:02:10;;;;;;;90.10;4.27;;;;;;;23.73;55.92;98042.06;7303608;19;131857;-36
2023/09/22 04:04:36;;;;;;;70.87;3.40;;;;;;;23.72;55.79;98048.28;7305269;19;130336;-35
2023/09/22 04:07:01;;;;;;;101.50;4.90;;;;;;;23.71;55.01;98054.56;7303943;19;129053;-38
2023/09/22 04:09:28;;;;;;;98.93;4.77;;;;;;;23.71;55.51;98054.56;7301720;19;129591;-36
2023/09/22 04:11:53;;;;;;;;;;;;;;;23.70;57.17;98044.25;7302729;19;131577;-37
2023/09/22 04:14:20;;;;;;;103.57;4.87;;;;;;;23.71;55.23;98049.31;7303226;19;130547;-37
2023/09/22 04:16:46;;;;;;;67.85;3.15;;;;;;;23.62;54.75;98039.16;7310656;19;129654;-38
2023/09/22 04:19:11;;;;;;;57.77;2.77;;;;;;;23.71;55.15;98059.81;7310540;19;129770;-34
2023/09/22 04:21:42;;;;;;;85.97;4.33;;;;;;;23.71;55.31;98059.81;7309873;19;130113;-36
2023/09/22 04:24:09;;;;;;;105.95;4.97;;;;;;;23.70;55.16;98066.03;7310186;19;131115;-37
2023/09/22 04:26:42;;;;;;;123.32;5.68;;;;;;;23.70;54.98;98058.16;7306962;19;131098;-35
2023/09/22 04:29:08;;;;;;;131.85;6.45;;;;;;;23.69;55.00;98069.66;7308563;19;130555;-35
2023/09/22 04:31:34;;;;;;;81.93;3.85;;;;;;;23.68;55.27;98064.63;7310494;19;130154;-38
2023/09/22 04:33:59;;;;;;;78.83;3.93;;;;;;;23.55;55.47;98056.63;7309713;19;129255;-37
2023/09/22 04:36:25;;;;;;;96.30;4.37;;;;;;;23.67;54.68;98070.88;7308417;19;129583;-36
2023/09/22 04:38:50;;;;;;;89.83;4.30;;;;;;;23.71;55.43;98079.97;7308574;19;131210;-36
2023/09/22 04:41:19;;;;;;;70.57;3.27;;;;;;;23.69;54.95;98076.72;7311642;19;130164;-37
2023/09/22 04:43:44;;;;;;;90.18;4.25;;;;;;;23.68;55.75;98073.31;7309906;19;130371;-36
2023/09/22 04:46:09;;;;;;;97.97;4.63;;;;;;;23.69;55.73;98077.53;7308277;19;131386;-36
2023/09/22 04:48:35;;;;;;;42.67;2.10;;;;;;;23.67;55.80;98079.53;7306246;19;129414;-37
2023/09/22 04:51:00;;;;;;;113.28;5.40;;;;;;;23.66;55.38;98077.94;7309677;19;130230;-35
2023/09/22 04:53:28;;;;;;;120.50;5.83;;;;;;;23.68;56.06;98070.69;7308201;19;132029;-37
2023/09/22 04:56:03;;;;;;;82.65;4.00;;;;;;;23.67;57.10;98095.28;7308487;19;129634;-36
2023/09/22 04:58:32;;;;;;;101.97;4.60;;;;;;;23.69;56.20;98093.28;7307512;19;129549;-37
2023/09/22 05:01:01;;;;;;;99.10;4.82;;;;;;;23.70;55.97;98110.63;7307614;19;130044;-37
2023/09/22 05:03:29;;;;;;;77.47;3.50;;;;;;;23.66;55.29;98119.91;7306675;19;130879;-36
2023/09/22 05:06:01;;;;;;;99.93;4.82;;;;;;;23.58;55.87;98101.69;7310047;19;129513;-36
2023/09/22 05:08:26;;;;;;;119.93;5.60;;;;;;;23.65;55.67;98118.25;7307330;19;128960;-36
2023/09/22 05:10:52;;;;;;;68.40;3.20;;;;;;;23.67;56.07;98124.16;7307475;19;129489;-36
2023/09/22 05:13:18;;;;;;;79.10;3.87;;;;;;;23.66;55.71;98125.16;7309695;19;131083;-38
2023/09/22 05:15:43;;;;;;;62.60;3.03;;;;;;;23.65;55.89;98127.97;7311048;19;130694;-37
2023/09/22 05:18:13;;;;;;;129.27;6.57;;;;;;;23.67;55.91;98115.47;7307311;19;129700;-35
2023/09/22 05:20:40;;;;;;;79.20;3.78;;;;;;;23.67;55.29;98116.28;7308650;19;130040;-38
2023/09/22 05:23:06;;;;;;;82.43;4.00;;;;;;;23.66;55.32;98119.09;7308205;19;130338;-40
2023/09/22 05:25:33;;;;;;;107.03;5.07;;;;;;;23.67;55.01;98110.22;7309087;19;129776;-37
2023/09/22 05:27:58;;;;;;;107.15;5.22;;;;;;;23.69;55.59;98123.94;7305624;19;129571;-38
2023/09/22 05:30:23;;;;;;;44.43;2.30;;;;;;;23.68;55.20;98127.59;7310154;19;129608;-37
2023/09/22 05:32:49;;;;;;;85.05;3.88;;;;;;;23.67;55.75;98142.50;7309412;19;130294;-38
2023/09/22 05:35:15;;;;;;;89.10;4.00;;;;;;;23.68;55.67;98133.66;7307889;19;128977;-37
2023/09/22 05:37:41;;;;;;;46.80;2.28;;;;;;;23.57;55.51;98115.78;7308503;19;129999;-38
2023/09/22 05:40:12;;;;;;;92.73;4.43;;;;;;;23.68;55.10;98138.91;7307618;19;130343;-37
2023/09/22 05:42:42;;;;;;;86.00;4.22;;;;;;;23.68;55.19;98135.47;7309626;19;130759;-37
2023/09/22 05:45:09;;;;;;;102.80;4.90;;;;;;;23.68;55.42;98132.84;7308046;19;129462;-37
2023/09/22 05:47:34;;;;;;;55.45;2.75;;;;;;;23.66;55.95;98125.16;7308560;19;129973;-38
2023/09/22 05:50:02;;;;;;;105.70;4.93;;;;;;;23.67;55.62;98139.88;7307013;19;130218;-38
2023/09/22 05:52:27;;;;;;;67.03;3.13;;;;;;;23.65;55.39;98141.88;7307329;19;130870;-36
2023/09/22 05:54:53;;;;;;;64.67;3.07;;;;;;;23.66;55.53;98148.78;7308021;19;130298;-37
2023/09/22 05:57:18;;;;;;;95.43;4.60;;;;;;;23.67;55.63;98160.88;7305592;19;128855;-37
2023/09/22 05:59:44;;;;;;;75.27;3.60;;;;;;;23.66;56.03;98168.94;7307758;19;131563;-36
2023/09/22 06:02:10;;;;;;;77.57;3.83;;;;;;;23.66;55.03;98156.66;7308614;19;130417;-38
2023/09/22 06:04:36;;;;;;;57.88;2.80;;;;;;;23.67;55.33;98167.97;7308200;19;129437;-36
2023/09/22 06:07:02;;;;;;;94.23;4.43;;;;;;;23.65;55.93;98170.75;7306572;19;129404;-37
2023/09/22 06:09:27;;;;;;;44.35;2.33;;;;;;;23.67;56.08;98174.00;7305950;19;130245;-37
2023/09/22 06:11:53;;;;;;;73.23;3.50;;;;;;;23.66;55.67;98172.38;7307916;19;129996;-38
2023/09/22 06:14:19;;;;;;;76.70;3.50;;;;;;;23.64;56.28;98168.31;7306739;19;129341;-37
2023/09/22 06:16:44;;;;;;;92.40;4.30;;;;;;;23.64;56.17;98169.13;7306147;19;129412;-35
2023/09/22 06:19:10;;;;;;;44.67;2.43;;;;;;;23.65;55.54;98170.75;7306467;19;130112;-38
2023/09/22 06:21:37;;;;;;;70.00;3.50;;;;;;;23.63;56.15;98166.69;7307870;19;129890;-38
2023/09/22 06:24:03;;;;;;;134.23;6.78;;;;;;;23.64;56.40;98174.38;7306510;19;128729;-38
2023/09/22 06:26:29;;;;;;;74.07;3.57;;;;;;;23.63;56.39;98167.50;7307464;19;128917;-37
2023/09/22 06:28:54;;;;;;;100.17;6.37;;;;;;;23.64;56.35;98161.25;7304011;19;129509;-37
2023/09/22 06:31:19;;;;;;;76.43;5.00;;;;;;;23.65;56.19;98165.50;7305553;19;130158;-38
2023/09/22 06:33:45;;;;;;;81.77;4.23;;;;;;;23.62;56.32;98171.13;7307097;19;128903;-36
2023/09/22 06:36:11;;;;;;;138.90;7.10;;;;;;;23.59;56.82;98176.75;7305097;19;129293;-37
2023/09/22 06:38:36;;;;;;;95.13;5.00;;;;;;;23.61;56.25;98198.38;7304041;19;130058;-39
2023/09/22 06:41:04;;;;;;;134.90;7.03;;;;;;;23.61;56.65;98194.91;7305097;19;130690;-38
2023/09/22 06:43:30;;;;;;;70.00;3.75;;;;;;;23.52;56.39;98175.06;7306781;19;129407;-37
2023/09/22 06:45:58;;;;;;;108.80;5.63;;;;;;;23.61;56.15;98195.75;7305854;19;129082;-38
2023/09/22 06:48:29;;;;;;;73.00;3.58;;;;;;;23.63;56.67;98209.50;7304733;19;130241;-38
2023/09/22 06:50:57;;;;;;;80.03;4.28;;;;;;;23.63;56.79;98198.19;7307395;19;130453;-38
2023/09/22 06:53:24;;;;;;;70.75;3.58;;;;;;;23.67;56.82;98204.69;7304908;19;129476;-37
2023/09/22 06:55:50;;;;;;;;;;;;;;;23.66;58.41;98224.03;7306894;19;128995;-37
2023/09/22 06:58:15;;;;;;;83.40;4.25;;;;;;;23.66;56.12;98222.25;7303644;19;130811;-35
2023/09/22 07:00:41;;;;;;;78.23;4.17;;;;;;;23.58;56.53;98224.97;7306168;19;129086;-38
2023/09/22 07:03:06;;;;;;;111.50;5.83;;;;;;;23.62;56.73;98239.34;7305514;19;129378;-38
2023/09/22 07:05:32;;;;;;;76.23;4.07;;;;;;;23.64;56.72;98254.91;7304658;19;129745;-38
2023/09/22 07:07:57;;;;;;;73.70;4.20;;;;;;;23.61;56.91;98253.47;7304806;19;130146;-38
2023/09/22 07:10:24;;;;;;;79.70;4.33;;;;;;;23.63;56.54;98264.59;7304255;19;130646;-37
2023/09/22 07:12:50;;;;;;;68.10;3.42;;;;;;;23.63;56.61;98261.97;7305156;19;130242;-35
2023/09/22 07:15:16;;;;;;;83.90;4.50;;;;;;;23.62;56.66;98249.84;7304617;19;131437;-38
2023/09/22 07:17:43;;;;;;;104.47;5.43;;;;;;;23.59;56.94;98239.72;7304625;19;129402;-38
2023/09/22 07:20:12;;;;;;;93.55;5.13;;;;;;;23.62;56.50;98255.09;7306488;19;129168;-37
2023/09/22 07:22:38;;;;;;;77.00;3.97;;;;;;;23.62;56.69;98265.56;7306091;19;128854;-38
2023/09/22 07:25:03;;;;;;;83.13;4.13;;;;;;;23.63;56.66;98275.09;7305420;19;129072;-37
2023/09/22 07:27:29;;;;;;;74.07;4.00;;;;;;;23.62;57.05;98278.69;7301483;19;130162;-37
2023/09/22 07:29:54;;;;;;;80.60;4.40;;;;;;;23.62;56.61;98278.69;7303422;19;131041;-37
2023/09/22 07:32:20;;;;;;;62.27;3.40;;;;;;;23.61;56.70;98277.09;7305199;19;128842;-38
2023/09/22 07:34:48;;;;;;;80.50;4.37;;;;;;;23.61;56.58;98276.25;7304762;19;129422;-37
2023/09/22 07:37:13;;;;;;;139.77;7.20;;;;;;;23.63;56.74;98287.38;7302066;19;130179;-37
2023/09/22 07:39:39;;;;;;;75.93;3.97;;;;;;;23.62;56.86;98267.41;7304905;19;131121;-38
2023/09/22 07:42:05;;;;;;;82.40;4.17;;;;;;;23.63;56.40;98282.97;7304002;19;129620;-35
2023/09/22 07:44:31;;;;;;;63.45;3.67;;;;;;;23.63;56.42;98285.59;7304383;19;129353;-37
2023/09/22 07:46:58;;;;;;;67.47;3.30;;;;;;;23.59;56.48;98281.69;7305063;19;130247;-38
2023/09/22 07:49:25;;;;;;;80.15;4.22;;;;;;;23.59;56.44;98276.44;7305611;19;130414;-38
2023/09/22 07:51:51;;;;;;;84.82;4.30;;;;;;;23.62;56.56;98286.56;7312561;19;130103;-36
2023/09/22 07:54:18;;;;;;;75.53;3.97;;;;;;;23.61;56.41;98284.94;7312631;19;129366;-38
2023/09/22 07:56:46;;;;;;;80.47;4.90;;;;;;;23.63;56.91;98300.50;7310157;19;132559;-37
2023/09/22 07:59:13;;;;;;;74.45;3.88;;;;;;;23.60;56.08;98298.25;7312076;19;131054;-38
2023/09/22 08:01:42;;;;;;;81.80;4.10;;;;;;;23.60;56.28;98309.53;7310698;19;129428;-38
2023/09/22 08:04:08;;;;;;;93.03;4.88;;;;;;;23.60;56.30;98309.53;7312118;19;128962;-38
2023/09/22 08:06:34;;;;;;;93.13;4.80;;;;;;;23.58;56.33;98303.69;7310975;19;130949;-38
2023/09/22 08:09:00;;;;;;;58.20;3.50;;;;;;;23.59;56.29;98304.47;7310264;19;131327;-38
2023/09/22 08:11:25;;;;;;;99.37;5.23;;;;;;;23.59;56.59;98313.19;7309255;19;129443;-37
2023/09/22 08:13:51;;;;;;;57.10;3.77;;;;;;;23.62;56.38;98318.06;7310178;19;129082;-38
2023/09/22 08:16:17;;;;;;;95.87;4.70;;;;;;;23.62;56.91;98315.44;7310480;19;129044;-37
2023/09/22 08:18:43;;;;;;;82.75;4.13;;;;;;;23.61;56.22;98326.94;7309289;19;130673;-36
2023/09/22 08:21:09;;;;;;;103.10;5.20;;;;;;;23.58;56.89;98316.81;7310491;19;129490;-36
2023/09/22 08:23:34;;;;;;;55.97;2.97;;;;;;;23.60;56.67;98332.38;7310523;19;129744;-38
2023/09/22 08:26:05;;;;;;;129.07;6.57;;;;;;;23.58;57.34;98327.31;7309785;19;130266;-37
2023/09/22 08:28:31;;;;;;;82.88;4.05;;;;;;;23.62;57.23;98336.41;7308254;19;130942;-38
2023/09/22 08:30:57;;;;;;;60.85;3.20;;;;;;;23.59;56.96;98334.16;7311521;19;128837;-38
2023/09/22 08:33:22;;;;;;;109.77;5.47;;;;;;;23.60;57.33;98346.28;7311591;19;128920;-37
2023/09/22 08:35:48;;;;;;;70.77;3.70;;;;;;;23.57;57.11;98346.66;7311049;19;130113;-38
2023/09/22 08:38:14;;;;;;;95.83;4.87;;;;;;;23.61;57.26;98352.34;7308338;19;130342;-34
2023/09/22 08:40:40;;;;;;;92.30;4.83;;;;;;;23.61;57.11;98363.66;7310758;19;129381;-39
2023/09/22 08:43:05;;;;;;;37.97;2.13;;;;;;;23.61;57.38;98358.41;7310199;19;129084;-38
2023/09/22 08:45:31;;;;;;;76.73;3.97;;;;;;;23.61;57.50;98358.41;7309959;19;132247;-39
2023/09/22 08:47:57;;;;;;;63.40;3.43;;;;;;;23.61;57.51;98368.09;7308791;19;129327;-38
2023/09/22 08:50:23;;;;;;;105.75;5.25;;;;;;;23.58;57.26;98364.03;7307225;19;129498;-37
2023/09/22 08:52:52;;;;;;;98.70;5.38;;;;;;;23.59;57.68;98364.84;7309643;19;130861;-36
2023/09/22 08:55:18;;;;;;;104.88;5.35;;;;;;;23.57;57.43;98359.78;7309136;19;130104;-37
2023/09/22 08:57:45;;;;;;;91.88;4.43;;;;;;;23.58;57.65;98352.72;7305819;19;130511;-39
2023/09/22 09:00:20;;;;;;;103.78;5.15;;;;;;;23.57;58.40;98348.47;7308684;19;129514;-39
2023/09/22 09:02:50;;;;;;;73.65;3.53;;;;;;;23.58;57.68;98347.47;7309952;19;130727;-38
2023/09/22 09:05:20;;;;;;;78.20;3.95;;;;;;;23.56;57.17;98352.91;7309045;19;130217;-38
2023/09/22 09:07:47;;;;;;;101.25;5.20;;;;;;;23.56;56.69;98358.16;7306979;19;131127;-38
2023/09/22 09:10:24;;;;;;;;;;;;;;;23.57;58.98;98362.38;7308749;19;130216;-36
2023/09/22 09:12:49;;;;;;;71.07;3.45;;;;;;;23.59;57.54;98357.78;7309786;19;129403;-38
2023/09/22 09:15:14;;;;;;;105.97;5.37;;;;;;;23.57;57.44;98365.00;7309253;19;130334;-37
2023/09/22 09:17:40;;;;;;;53.90;2.93;;;;;;;23.58;57.92;98378.97;7307338;19;129212;-37
2023/09/22 09:20:06;;;;;;;90.57;4.47;;;;;;;23.59;57.74;98384.03;7307567;19;129364;-36
2023/09/22 09:22:35;;;;;;;107.20;5.70;;;;;;;23.58;57.25;98378.97;7309761;19;129713;-36
2023/09/22 09:25:09;;;;;;;65.22;3.35;;;;;;;23.48;58.44;98363.50;7309748;19;130401;-38
2023/09/22 09:27:34;;;;;;;95.93;4.90;;;;;;;23.60;58.25;98382.22;7307283;19;130469;-40
2023/09/22 09:30:08;;;;;;;77.17;3.83;;;;;;;23.61;58.54;98384.66;7308611;19;129251;-39
2023/09/22 09:32:33;;;;;;;87.45;4.43;;;;;;;23.61;58.33;98374.16;7307907;19;129108;-37
2023/09/22 09:34:58;;;;;;;61.90;3.17;;;;;;;23.60;58.39;98377.75;7308866;19;129671;-39
2023/09/22 09:37:26;;;;;;;91.07;4.73;;;;;;;23.61;57.69;98371.53;7308570;19;130684;-37
2023/09/22 09:39:57;;;;;;;65.43;3.47;;;;;;;23.59;58.88;98370.91;7308295;19;130884;-37
2023/09/22 09:42:23;;;;;;;113.38;5.57;;;;;;;23.58;58.09;98379.78;7307326;19;128957;-39
2023/09/22 09:44:54;;;;;;;67.30;3.53;;;;;;;23.57;58.88;98377.34;7309261;19;130288;-39
2023/09/22 09:47:25;;;;;;;83.97;4.55;;;;;;;23.58;59.62;98384.22;7306895;19;129673;-38
2023/09/22 09:49:56;;;;;;;72.43;3.95;;;;;;;23.58;59.53;98392.91;7307093;19;129031;-38
2023/09/22 09:52:28;;;;;;;98.53;5.18;;;;;;;23.59;59.58;98397.13;7309432;19;129022;-38
2023/09/22 09:55:14;;;;;;;53.72;2.97;;;;;;;23.59;59.80;98386.66;7307688;19;130295;-37
2023/09/22 09:57:44;;;;;;;108.95;5.60;;;;;;;23.57;59.68;98380.75;7307338;19;130397;-37
2023/09/22 10:00:19;;;;;;;55.03;3.08;;;;;;;23.59;59.44;98378.78;7308783;19;129225;-38
2023/09/22 10:02:49;;;;;;;107.13;5.47;;;;;;;23.49;59.34;98359.88;7308099;19;129262;-37
2023/09/22 10:05:19;;;;;;;60.83;3.33;;;;;;;23.58;59.87;98381.59;7307072;19;131088;-37
2023/09/22 10:07:46;;;;;;;92.55;4.82;;;;;;;23.58;59.36;98385.03;7305721;19;131677;-39
2023/09/22 10:10:15;;;;;;;77.05;4.13;;;;;;;23.59;58.88;98378.78;7304930;19;129060;-37
2023/09/22 10:12:43;;;;;;;76.15;4.07;;;;;;;23.61;59.39;98375.97;7306489;19;129109;-39
2023/09/22 10:15:10;;;;;;;75.10;3.95;;;;;;;23.57;59.47;98378.13;7307633;19;130214;-36
2023/09/22 10:17:36;;;;;;;42.75;2.78;;;;;;;23.58;59.24;98371.91;7304633;19;130404;-39
2023/09/22 10:20:07;;;;;;;76.07;3.97;;;;;;;23.58;59.22;98374.53;7308145;19;130011;-38
2023/09/22 10:22:35;;;;;;;140.05;7.40;;;;;;;23.62;60.17;98375.00;7306669;19;129731;-38
2023/09/22 10:25:13;;;;;;;51.28;3.03;;;;;;;23.61;60.49;98376.78;7307557;19;131374;-39
2023/09/22 10:27:57;;;;;;;;;;;;;;;23.60;60.29;98376.97;7305975;19;129427;-38
2023/09/22 10:30:43;;;;;;;82.13;4.65;;;;;;;23.59;60.38;98370.91;7305780;19;128840;-39
2023/09/22 10:33:25;;;;;;;119.30;6.22;;;;;;;23.59;60.23;98364.84;7305418;19;130030;-37
2023/09/22 10:35:51;;;;;;;77.32;4.18;;;;;;;23.56;59.63;98358.16;7305486;19;130741;-38
2023/09/22 10:38:19;;;;;;;98.37;5.10;;;;;;;23.49;59.51;98349.38;7303312;19;130917;-38
2023/09/22 10:41:00;;;;;;;59.38;3.08;;;;;;;23.55;60.34;98366.22;7307347;19;129118;-38
2023/09/22 10:43:26;;;;;;;72.35;3.97;;;;;;;23.55;59.34;98364.38;7307252;19;128925;-37
2023/09/22 10:45:52;;;;;;;90.60;4.72;;;;;;;23.56;59.22;98366.03;7305991;19;130160;-39
2023/09/22 10:48:18;;;;;;;110.63;5.40;;;;;;;23.57;59.05;98375.50;7304989;19;131827;-37
2023/09/22 10:50:49;;;;;;;66.83;3.43;;;;;;;23.49;59.34;98370.38;7303530;19;132556;-37
2023/09/22 10:53:14;;;;;;;74.20;3.72;;;;;;;23.56;59.13;98384.38;7306739;19;129473;-38
2023/09/22 10:55:42;;;;;;;66.60;3.47;;;;;;;23.57;59.01;98385.22;7307024;19;130764;-39
2023/09/22 10:58:10;;;;;;;70.63;3.78;;;;;;;23.54;59.34;98391.63;7303412;19;131064;-37
2023/09/22 11:00:39;;;;;;;73.68;3.75;;;;;;;23.56;58.54;98397.50;7306486;19;129168;-38
2023/09/22 11:03:07;;;;;;;52.50;3.05;;;;;;;23.57;58.89;98393.88;7306575;19;129443;-37
2023/09/22 11:05:34;;;;;;;76.82;4.03;;;;;;;23.54;58.71;98404.75;7307515;19;130315;-38
2023/09/22 11:08:01;;;;;;;57.37;3.00;;;;;;;23.56;58.91;98408.00;7305164;19;130463;-38
2023/09/22 11:10:27;;;;;;;90.32;4.85;;;;;;;23.58;58.06;98418.31;7305150;19;130107;-36
2023/09/22 11:12:54;;;;;;;90.07;4.47;;;;;;;23.49;58.68;98407.09;7306923;19;129212;-37
2023/09/22 11:15:20;;;;;;;85.68;4.38;;;;;;;23.50;58.22;98408.72;7305863;19;131265;-37